sensor_id;sensor_type;location;lat;lon;timestamp;temperature;humidity
7155;DHT22;3619;53.784;10.440;2022-12-05T00:05:14;4.30;99.90
7155;DHT22;3619;53.784;10.440;2022-12-05T00:07:57;4.20;99.90
7155;DHT22;3619;53.784;10.440;2022-12-05T00:10:41;4.20;99.90
7155;DHT22;3619;53.784;10.440;2022-12-05T00:13:43;4.20;99.90
7155;DHT22;3619;53.784;10.440;2022-12-05T00:16:37;4.20;99.90
7155;DHT22;3619;53.784;10.440;2022-12-05T00:29:11;4.30;99.90
7155;DHT22;3619;53.784;10.440;2022-12-05T00:32:25;4.30;99.90
7155;DHT22;3619;53.784;10.440;2022-12-05T00:35:02;4.30;99.90
7155;DHT22;3619;53.784;10.440;2022-12-05T00:44:13;4.30;99.90
7155;DHT22;3619;53.784;10.440;2022-12-05T00:50:48;4.40;99.90
7155;DHT22;3619;53.784;10.440;2022-12-05T00:56:48;4.30;99.90
7155;DHT22;3619;53.784;10.440;2022-12-05T01:06:36;4.40;99.90
7155;DHT22;3619;53.784;10.440;2022-12-05T01:13:07;4.50;99.90
7155;DHT22;3619;53.784;10.440;2022-12-05T01:38:23;4.50;99.90
7155;DHT22;3619;53.784;10.440;2022-12-05T01:48:38;4.60;99.90
7155;DHT22;3619;53.784;10.440;2022-12-05T01:52:26;4.60;99.90
7155;DHT22;3619;53.784;10.440;2022-12-05T01:55:43;4.50;99.90
7155;DHT22;3619;53.784;10.440;2022-12-05T01:57:14;4.60;99.90
7155;DHT22;3619;53.784;10.440;2022-12-05T02:00:08;4.60;99.90
7155;DHT22;3619;53.784;10.440;2022-12-05T02:02:42;4.60;99.90
7155;DHT22;3619;53.784;10.440;2022-12-05T02:06:25;4.50;99.90
7155;DHT22;3619;53.784;10.440;2022-12-05T02:08:39;4.50;99.90
7155;DHT22;3619;53.784;10.440;2022-12-05T02:11:12;4.60;99.90
7155;DHT22;3619;53.784;10.440;2022-12-05T02:14:04;4.60;99.90
7155;DHT22;3619;53.784;10.440;2022-12-05T02:16:59;4.60;99.90
7155;DHT22;3619;53.784;10.440;2022-12-05T02:20:17;4.60;99.90
7155;DHT22;3619;53.784;10.440;2022-12-05T02:23:14;4.60;99.90
7155;DHT22;3619;53.784;10.440;2022-12-05T02:26:24;4.60;99.90
7155;DHT22;3619;53.784;10.440;2022-12-05T02:29:29;4.60;99.90
7155;DHT22;3619;53.784;10.440;2022-12-05T02:32:37;4.60;99.90
7155;DHT22;3619;53.784;10.440;2022-12-05T02:35:33;4.60;99.90
7155;DHT22;3619;53.784;10.440;2022-12-05T02:38:16;4.60;99.90
7155;DHT22;3619;53.784;10.440;2022-12-05T02:41:01;4.70;99.90
7155;DHT22;3619;53.784;10.440;2022-12-05T02:43:43;4.60;99.90
7155;DHT22;3619;53.784;10.440;2022-12-05T02:46:22;4.60;99.90
7155;DHT22;3619;53.784;10.440;2022-12-05T02:52:46;4.60;99.90
7155;DHT22;3619;53.784;10.440;2022-12-05T02:56:11;4.70;99.90
7155;DHT22;3619;53.784;10.440;2022-12-05T02:58:43;4.60;99.90
7155;DHT22;3619;53.784;10.440;2022-12-05T03:04:46;4.70;99.90
7155;DHT22;3619;53.784;10.440;2022-12-05T03:11:22;4.70;99.90
7155;DHT22;3619;53.784;10.440;2022-12-05T03:23:57;4.70;99.90
7155;DHT22;3619;53.784;10.440;2022-12-05T03:30:21;4.70;99.90
7155;DHT22;3619;53.784;10.440;2022-12-05T03:32:56;4.70;99.90
7155;DHT22;3619;53.784;10.440;2022-12-05T03:36:05;4.70;99.90
7155;DHT22;3619;53.784;10.440;2022-12-05T03:42:32;4.70;99.90
7155;DHT22;3619;53.784;10.440;2022-12-05T03:45:26;4.70;99.90
7155;DHT22;3619;53.784;10.440;2022-12-05T03:54:50;4.70;99.90
7155;DHT22;3619;53.784;10.440;2022-12-05T03:57:29;4.70;99.90
7155;DHT22;3619;53.784;10.440;2022-12-05T04:00:29;4.70;99.90
7155;DHT22;3619;53.784;10.440;2022-12-05T04:03:44;4.70;99.90
7155;DHT22;3619;53.784;10.440;2022-12-05T04:08:58;4.70;99.90
7155;DHT22;3619;53.784;10.440;2022-12-05T04:13:58;4.60;99.90
7155;DHT22;3619;53.784;10.440;2022-12-05T04:20:09;4.50;99.90
7155;DHT22;3619;53.784;10.440;2022-12-05T04:23:25;4.40;99.90
7155;DHT22;3619;53.784;10.440;2022-12-05T04:26:42;4.40;99.90
7155;DHT22;3619;53.784;10.440;2022-12-05T04:39:59;4.40;99.90
7155;DHT22;3619;53.784;10.440;2022-12-05T04:42:51;4.40;99.90
7155;DHT22;3619;53.784;10.440;2022-12-05T04:45:27;4.40;99.90
7155;DHT22;3619;53.784;10.440;2022-12-05T05:01:52;4.30;99.90
7155;DHT22;3619;53.784;10.440;2022-12-05T05:11:39;4.30;99.90
7155;DHT22;3619;53.784;10.440;2022-12-05T05:14:25;4.30;99.90
7155;DHT22;3619;53.784;10.440;2022-12-05T05:41:42;4.20;99.90
7155;DHT22;3619;53.784;10.440;2022-12-05T05:50:30;4.10;99.90
7155;DHT22;3619;53.784;10.440;2022-12-05T05:53:22;4.10;99.90
7155;DHT22;3619;53.784;10.440;2022-12-05T05:56:59;4.10;99.90
7155;DHT22;3619;53.784;10.440;2022-12-05T06:07:02;4.00;99.90
7155;DHT22;3619;53.784;10.440;2022-12-05T06:09:39;3.90;99.90
7155;DHT22;3619;53.784;10.440;2022-12-05T10:23:46;3.20;99.90
7155;DHT22;3619;53.784;10.440;2022-12-05T16:08:12;2.70;99.90
7155;DHT22;3619;53.784;10.440;2022-12-05T16:11:09;2.70;99.90
7155;DHT22;3619;53.784;10.440;2022-12-05T16:17:21;2.70;99.90
7155;DHT22;3619;53.784;10.440;2022-12-05T16:20:34;2.80;99.90
7155;DHT22;3619;53.784;10.440;2022-12-05T16:26:55;2.80;99.90
7155;DHT22;3619;53.784;10.440;2022-12-05T16:29:29;2.80;99.90
7155;DHT22;3619;53.784;10.440;2022-12-05T18:53:35;2.40;99.90
7155;DHT22;3619;53.784;10.440;2022-12-05T18:56:03;2.40;99.90
7155;DHT22;3619;53.784;10.440;2022-12-05T18:58:33;2.40;99.90
7155;DHT22;3619;53.784;10.440;2022-12-05T19:01:05;2.40;99.90
7155;DHT22;3619;53.784;10.440;2022-12-05T19:03:34;2.40;99.90
7155;DHT22;3619;53.784;10.440;2022-12-05T19:06:09;2.50;99.90
7155;DHT22;3619;53.784;10.440;2022-12-05T19:08:38;2.40;99.90
7155;DHT22;3619;53.784;10.440;2022-12-05T19:11:05;2.50;99.90
7155;DHT22;3619;53.784;10.440;2022-12-05T19:13:32;2.50;99.90
7155;DHT22;3619;53.784;10.440;2022-12-05T19:16:00;2.50;99.90
7155;DHT22;3619;53.784;10.440;2022-12-05T19:18:27;2.50;99.90
7155;DHT22;3619;53.784;10.440;2022-12-05T19:20:55;2.50;99.90
7155;DHT22;3619;53.784;10.440;2022-12-05T19:23:22;2.50;99.90
7155;DHT22;3619;53.784;10.440;2022-12-05T19:26:08;2.50;99.90
7155;DHT22;3619;53.784;10.440;2022-12-05T19:28:36;2.50;99.90
7155;DHT22;3619;53.784;10.440;2022-12-05T19:31:06;2.50;99.90
7155;DHT22;3619;53.784;10.440;2022-12-05T19:33:34;2.60;99.90
7155;DHT22;3619;53.784;10.440;2022-12-05T19:36:06;2.60;99.90
7155;DHT22;3619;53.784;10.440;2022-12-05T19:38:35;2.60;99.90
7155;DHT22;3619;53.784;10.440;2022-12-05T19:41:03;2.60;99.90
7155;DHT22;3619;53.784;10.440;2022-12-05T19:43:32;2.60;99.90
7155;DHT22;3619;53.784;10.440;2022-12-05T19:46:02;2.60;99.90
7155;DHT22;3619;53.784;10.440;2022-12-05T19:48:29;2.70;99.90
7155;DHT22;3619;53.784;10.440;2022-12-05T19:50:59;2.60;99.90
7155;DHT22;3619;53.784;10.440;2022-12-05T19:53:28;2.70;99.90
7155;DHT22;3619;53.784;10.440;2022-12-05T19:55:59;2.70;99.90
7155;DHT22;3619;53.784;10.440;2022-12-05T19:58:27;2.60;99.90
7155;DHT22;3619;53.784;10.440;2022-12-05T20:00:55;2.70;99.90
7155;DHT22;3619;53.784;10.440;2022-12-05T20:03:23;2.70;99.90
7155;DHT22;3619;53.784;10.440;2022-12-05T20:05:56;2.70;99.90
7155;DHT22;3619;53.784;10.440;2022-12-05T20:08:26;2.70;99.90
7155;DHT22;3619;53.784;10.440;2022-12-05T20:10:53;2.70;99.90
7155;DHT22;3619;53.784;10.440;2022-12-05T20:13:20;2.70;99.90
7155;DHT22;3619;53.784;10.440;2022-12-05T20:15:47;2.80;99.90
7155;DHT22;3619;53.784;10.440;2022-12-05T20:18:17;2.70;99.90
7155;DHT22;3619;53.784;10.440;2022-12-05T20:20:44;2.80;99.90
7155;DHT22;3619;53.784;10.440;2022-12-05T20:23:13;2.80;99.90
7155;DHT22;3619;53.784;10.440;2022-12-05T20:25:40;2.80;99.90
7155;DHT22;3619;53.784;10.440;2022-12-05T20:28:07;2.80;99.90
7155;DHT22;3619;53.784;10.440;2022-12-05T20:30:34;2.80;99.90
7155;DHT22;3619;53.784;10.440;2022-12-05T20:33:01;2.80;99.90
7155;DHT22;3619;53.784;10.440;2022-12-05T20:35:30;2.80;99.90
7155;DHT22;3619;53.784;10.440;2022-12-05T20:38:00;2.80;99.90
7155;DHT22;3619;53.784;10.440;2022-12-05T20:40:27;2.70;99.90
7155;DHT22;3619;53.784;10.440;2022-12-05T20:42:54;2.70;99.90
7155;DHT22;3619;53.784;10.440;2022-12-05T20:45:21;2.70;99.90
7155;DHT22;3619;53.784;10.440;2022-12-05T20:47:48;2.80;99.90
7155;DHT22;3619;53.784;10.440;2022-12-05T20:50:16;2.80;99.90
7155;DHT22;3619;53.784;10.440;2022-12-05T20:52:44;2.80;99.90
7155;DHT22;3619;53.784;10.440;2022-12-05T20:55:11;2.80;99.90
7155;DHT22;3619;53.784;10.440;2022-12-05T20:57:38;2.80;99.90
7155;DHT22;3619;53.784;10.440;2022-12-05T21:00:06;2.80;99.90
7155;DHT22;3619;53.784;10.440;2022-12-05T21:02:33;2.80;99.90
7155;DHT22;3619;53.784;10.440;2022-12-05T21:05:00;2.80;99.90
7155;DHT22;3619;53.784;10.440;2022-12-05T21:07:27;2.80;99.90
7155;DHT22;3619;53.784;10.440;2022-12-05T21:09:55;2.80;99.90
7155;DHT22;3619;53.784;10.440;2022-12-05T21:12:22;2.80;99.90
7155;DHT22;3619;53.784;10.440;2022-12-05T21:14:50;2.80;99.90
7155;DHT22;3619;53.784;10.440;2022-12-05T21:17:17;2.80;99.90
7155;DHT22;3619;53.784;10.440;2022-12-05T21:19:44;2.80;99.90
7155;DHT22;3619;53.784;10.440;2022-12-05T21:22:11;2.80;99.90
7155;DHT22;3619;53.784;10.440;2022-12-05T21:24:38;2.80;99.90
7155;DHT22;3619;53.784;10.440;2022-12-05T21:27:08;2.80;99.90
7155;DHT22;3619;53.784;10.440;2022-12-05T21:29:37;2.80;99.90
7155;DHT22;3619;53.784;10.440;2022-12-05T21:32:11;2.80;99.90
7155;DHT22;3619;53.784;10.440;2022-12-05T21:34:38;2.80;99.90
7155;DHT22;3619;53.784;10.440;2022-12-05T21:37:08;2.80;99.90
7155;DHT22;3619;53.784;10.440;2022-12-05T21:39:37;2.80;99.90
7155;DHT22;3619;53.784;10.440;2022-12-05T21:42:10;2.80;99.90
7155;DHT22;3619;53.784;10.440;2022-12-05T21:44:37;2.80;99.90
7155;DHT22;3619;53.784;10.440;2022-12-05T21:47:04;2.70;99.90
7155;DHT22;3619;53.784;10.440;2022-12-05T21:49:31;2.70;99.90
7155;DHT22;3619;53.784;10.440;2022-12-05T21:51:59;2.80;99.90
7155;DHT22;3619;53.784;10.440;2022-12-05T21:54:26;2.80;99.90
7155;DHT22;3619;53.784;10.440;2022-12-05T21:57:03;2.70;99.90
7155;DHT22;3619;53.784;10.440;2022-12-05T21:59:33;2.80;99.90
7155;DHT22;3619;53.784;10.440;2022-12-05T22:02:11;2.80;99.90
7155;DHT22;3619;53.784;10.440;2022-12-05T22:04:47;2.80;99.90
7155;DHT22;3619;53.784;10.440;2022-12-05T22:07:15;2.80;99.90
7155;DHT22;3619;53.784;10.440;2022-12-05T22:09:44;2.90;99.90
7155;DHT22;3619;53.784;10.440;2022-12-05T22:12:18;2.90;99.90
7155;DHT22;3619;53.784;10.440;2022-12-05T22:14:54;2.90;99.90
7155;DHT22;3619;53.784;10.440;2022-12-05T22:17:22;2.90;99.90
7155;DHT22;3619;53.784;10.440;2022-12-05T22:23:31;2.90;99.90
